Acton Vale, Canada
Current Conditions -  °F | °C
As of 7:00 AM on Thursday 23 Oct 2014 (Local Time) from CYHU Reporting Station
Overcast Overcast  
Wind Chill: 37°   Ceiling: 4800
Heat Index: 45°   Visibility: 9mi
Dew Point: 36°   Wind: 18mph
Humidity: 71%   Direction: 30°NNE
Pressure: 30.09"   Gusts: 25mph
Location:  45.63°N, 72.57°W
Report Text: CYHU 231100Z AUTO 03016G22KT 9SM SCT039 BKN048 OVC065 07/02 A3009 RMK SLP192
Loading
Personal Weather Stations






























Interactive Weather Map
Tropical Storm Tracking
New forecast layout! Learn more

10-Day Weather Forecast

Advertisements
Track Severe Weather on mobile